Time;durP1;ratioP1;P1;durP2;ratioP2;P2;SDS_P1;SDS_P2;PMS_P1;PMS_P2;Temp;Humidity;BMP_temperature;BMP_pressure;BME280_temperature;BME280_humidity;BME280_pressure;Samples;Min_cycle;Max_cycle;Signal;HPM_P1;HPM_P2
2021/12/10 00:01:16;;;;;;;;;;;4.80;99.90;;;;;;2132993;67;20286;-73
2021/12/10 00:04:00;;;;;;;33.75;20.27;;;4.80;99.90;;;;;;2139245;67;20626;-72
2021/12/10 00:06:47;;;;;;;36.03;20.75;;;4.90;99.90;;;;;;2139890;67;20634;-72
2021/12/10 00:09:47;;;;;;;37.35;21.92;;;4.90;99.90;;;;;;2125694;67;20298;-72
2021/12/10 00:12:54;;;;;;;40.88;20.85;;;4.80;99.90;;;;;;2132683;67;20254;-72
2021/12/10 00:15:39;;;;;;;30.30;19.98;;;4.80;99.90;;;;;;2125371;67;20357;-72
2021/12/10 00:18:32;;;;;;;34.78;20.13;;;4.80;99.90;;;;;;2126731;67;20377;-73
2021/12/10 00:21:14;;;;;;;37.28;19.67;;;4.80;99.90;;;;;;2130957;67;20421;-72
2021/12/10 00:23:57;;;;;;;30.00;17.67;;;4.80;99.90;;;;;;2142838;66;20170;-72
2021/12/10 00:26:39;;;;;;;31.25;19.15;;;4.80;99.90;;;;;;2138815;67;20716;-72
2021/12/10 00:29:25;;;;;;;33.20;19.70;;;4.80;99.90;;;;;;2129409;67;20266;-72
2021/12/10 00:32:24;;;;;;;34.65;18.67;;;4.80;99.90;;;;;;2139727;67;20204;-72
2021/12/10 00:35:12;;;;;;;30.98;18.40;;;4.80;99.90;;;;;;2131469;67;20171;-72
2021/12/10 00:37:53;;;;;;;29.67;17.13;;;4.80;99.90;;;;;;2124978;67;20219;-72
2021/12/10 00:40:35;;;;;;;33.70;17.70;;;5.00;99.90;;;;;;2115165;67;20225;-72
2021/12/10 00:43:18;;;;;;;27.35;15.77;;;4.90;99.90;;;;;;2119678;67;20193;-73
2021/12/10 00:45:59;;;;;;;30.40;17.08;;;4.90;99.90;;;;;;2115233;67;20204;-73
2021/12/10 00:48:42;;;;;;;27.90;14.98;;;4.90;99.90;;;;;;2111557;67;20321;-73
2021/12/10 00:51:26;;;;;;;33.60;16.08;;;4.90;99.90;;;;;;2100876;68;20327;-74
2021/12/10 00:54:09;;;;;;;28.55;16.60;;;4.90;99.90;;;;;;2079577;68;20228;-73
2021/12/10 00:56:52;;;;;;;25.52;15.35;;;4.90;99.90;;;;;;2077549;68;20251;-72
2021/12/10 00:59:34;;;;;;;28.92;15.73;;;5.10;99.90;;;;;;2084849;68;20421;-72
2021/12/10 01:02:22;;;;;;;27.73;15.13;;;4.90;99.90;;;;;;2090995;68;20363;-73
2021/12/10 01:05:06;;;;;;;26.23;15.15;;;4.90;99.90;;;;;;2097467;68;20227;-73
2021/12/10 01:07:47;;;;;;;25.38;16.58;;;4.90;99.90;;;;;;2090117;68;20659;-72
2021/12/10 01:10:38;;;;;;;24.30;13.93;;;5.10;99.90;;;;;;2093412;68;20229;-72
2021/12/10 01:13:27;;;;;;;25.77;15.43;;;4.90;99.90;;;;;;2104556;67;20351;-72
2021/12/10 01:28:29;;;;;;;31.93;15.73;;;5.10;99.90;;;;;;2106757;67;20851;-72
2021/12/10 01:31:10;;;;;;;24.27;15.10;;;5.20;99.90;;;;;;2115307;67;20837;-72
2021/12/10 01:33:54;;;;;;;27.08;16.38;;;5.00;99.90;;;;;;2117743;67;20299;-72
2021/12/10 01:36:39;;;;;;;29.27;15.27;;;5.20;99.90;;;;;;2117569;67;20248;-73
2021/12/10 01:39:25;;;;;;;25.95;16.02;;;4.90;99.90;;;;;;2112777;67;20343;-72
2021/12/10 01:42:15;;;;;;;31.05;15.82;;;4.90;99.90;;;;;;2129693;67;20340;-72
2021/12/10 01:45:00;;;;;;;24.25;14.65;;;5.00;99.90;;;;;;2126612;67;20254;-72
2021/12/10 01:47:42;;;;;;;28.27;14.50;;;5.00;99.90;;;;;;2135953;66;20287;-72
2021/12/10 01:50:25;;;;;;;24.27;14.38;;;5.00;99.90;;;;;;2135022;67;20231;-73
2021/12/10 01:53:11;;;;;;;22.90;14.35;;;5.00;99.90;;;;;;2115439;67;20193;-72
2021/12/10 01:55:55;;;;;;;27.83;13.95;;;5.00;99.90;;;;;;2106128;67;20199;-74
2021/12/10 01:58:38;;;;;;;22.45;12.88;;;5.20;99.90;;;;;;2112636;67;20181;-72
2021/12/10 02:01:42;;;;;;;23.38;14.52;;;5.00;99.90;;;;;;2118666;67;20227;-73
2021/12/10 02:04:27;;;;;;;21.95;13.07;;;5.00;99.90;;;;;;2116213;67;20307;-73
2021/12/10 02:07:13;;;;;;;20.87;11.73;;;4.90;99.90;;;;;;2103881;68;20569;-72
2021/12/10 02:09:58;;;;;;;17.67;10.82;;;5.00;99.90;;;;;;2106086;67;20353;-72
2021/12/10 02:12:43;;;;;;;20.05;11.80;;;5.00;99.90;;;;;;2094915;68;20323;-73
2021/12/10 02:15:28;;;;;;;23.10;13.35;;;4.90;99.90;;;;;;2091606;68;20194;-72
2021/12/10 02:18:12;;;;;;;23.98;13.57;;;4.90;99.90;;;;;;2108639;67;20402;-72
2021/12/10 02:21:02;;;;;;;21.25;13.02;;;4.90;99.90;;;;;;2124948;67;20283;-73
2021/12/10 02:23:55;;;;;;;20.13;12.48;;;4.90;99.90;;;;;;2119532;67;20446;-73
2021/12/10 02:27:06;;;;;;;22.35;14.00;;;4.90;99.90;;;;;;2119608;67;20192;-72
2021/12/10 02:29:48;;;;;;;23.67;13.88;;;4.90;99.90;;;;;;2129148;66;20249;-73
2021/12/10 02:32:30;;;;;;;21.77;14.90;;;4.90;99.90;;;;;;2124912;67;20258;-73
2021/12/10 02:35:14;;;;;;;22.77;13.93;;;4.90;99.90;;;;;;2139381;66;20309;-73
2021/12/10 02:37:57;;;;;;;22.30;13.18;;;4.90;99.90;;;;;;2143866;66;20327;-72
2021/12/10 02:40:39;;;;;;;22.95;12.73;;;4.90;99.90;;;;;;2136676;66;20688;-72
2021/12/10 02:43:24;;;;;;;19.52;11.85;;;5.00;99.90;;;;;;2118864;67;20172;-73
2021/12/10 02:46:08;;;;;;;18.02;12.35;;;4.90;99.90;;;;;;2127227;67;20220;-72
2021/12/10 02:48:51;;;;;;;22.15;12.98;;;4.90;99.90;;;;;;2127156;67;20785;-72
2021/12/10 02:51:34;;;;;;;23.15;13.60;;;4.90;99.90;;;;;;2129691;67;20701;-73
2021/12/10 02:54:22;;;;;;;21.25;13.20;;;4.90;99.90;;;;;;2132058;67;20336;-72
2021/12/10 02:57:11;;;;;;;20.33;11.35;;;4.90;99.90;;;;;;2138749;66;20372;-73
2021/12/10 02:59:54;;;;;;;18.75;11.30;;;4.90;99.90;;;;;;2139597;66;20170;-72
2021/12/10 03:02:38;;;;;;;22.50;11.95;;;4.90;99.90;;;;;;2131646;67;20187;-72
2021/12/10 03:05:21;;;;;;;18.55;10.82;;;4.80;99.90;;;;;;2117660;67;20362;-73
2021/12/10 03:08:02;;;;;;;17.67;11.35;;;4.80;99.90;;;;;;2124725;67;20221;-71
2021/12/10 03:10:45;;;;;;;17.85;11.80;;;4.80;99.90;;;;;;2125800;67;20254;-72
2021/12/10 03:13:26;;;;;;;23.25;12.73;;;4.80;99.90;;;;;;2116560;67;20236;-72
2021/12/10 03:16:12;;;;;;;20.00;11.77;;;4.80;99.90;;;;;;2118708;67;20446;-73
2021/12/10 03:18:53;;;;;;;19.85;12.00;;;4.80;99.90;;;;;;2105868;67;20372;-73
2021/12/10 03:21:44;;;;;;;24.65;13.32;;;4.80;99.90;;;;;;2096843;68;20340;-72
2021/12/10 03:24:27;;;;;;;21.60;13.05;;;4.80;99.90;;;;;;2105045;67;20405;-72
2021/12/10 03:27:14;;;;;;;23.02;13.15;;;4.80;99.90;;;;;;2102800;68;20173;-73
2021/12/10 03:29:58;;;;;;;23.50;12.73;;;4.80;99.90;;;;;;2103860;67;20391;-72
2021/12/10 03:32:41;;;;;;;18.88;12.07;;;4.70;99.90;;;;;;2104506;67;20716;-72
2021/12/10 03:35:32;;;;;;;17.67;12.02;;;4.80;99.90;;;;;;2120978;67;20245;-72
2021/12/10 03:38:22;;;;;;;22.02;13.15;;;4.70;99.90;;;;;;2118411;67;20189;-72
2021/12/10 03:41:09;;;;;;;21.42;12.30;;;4.70;99.90;;;;;;2110328;67;20248;-72
2021/12/10 03:43:53;;;;;;;24.77;13.57;;;4.70;99.90;;;;;;2115495;67;20332;-72
2021/12/10 03:46:35;;;;;;;18.33;12.52;;;4.70;99.90;;;;;;2129865;67;20381;-74
2021/12/10 03:49:16;;;;;;;25.15;11.82;;;4.70;99.90;;;;;;2139066;66;20724;-72
2021/12/10 03:51:58;;;;;;;18.13;12.57;;;4.70;99.90;;;;;;2150986;66;20251;-72
2021/12/10 03:54:42;;;;;;;20.63;11.23;;;4.70;99.90;;;;;;2138819;66;20276;-72
2021/12/10 03:57:24;;;;;;;21.80;12.45;;;4.60;99.90;;;;;;2118916;67;20224;-72
2021/12/10 04:00:12;;;;;;;18.60;11.40;;;4.60;99.90;;;;;;2134752;66;20352;-73
2021/12/10 04:02:53;;;;;;;20.48;12.77;;;4.60;99.90;;;;;;2140203;67;20183;-73
2021/12/10 04:05:35;;;;;;;22.95;13.93;;;4.60;99.90;;;;;;2140133;66;20179;-72
2021/12/10 04:08:19;;;;;;;20.33;12.43;;;4.60;99.90;;;;;;2147584;66;20256;-72
2021/12/10 04:11:06;;;;;;;23.13;12.90;;;4.60;99.90;;;;;;2135900;66;20244;-72
2021/12/10 04:13:51;;;;;;;21.48;12.88;;;4.60;99.90;;;;;;2125688;67;20681;-72
2021/12/10 04:16:34;;;;;;;19.27;11.82;;;4.60;99.90;;;;;;2117894;67;20181;-71
2021/12/10 04:19:20;;;;;;;21.92;12.88;;;4.60;99.90;;;;;;2113037;67;20425;-73
2021/12/10 04:22:03;;;;;;;23.10;12.68;;;4.70;99.90;;;;;;2102559;67;20364;-72
2021/12/10 04:24:45;;;;;;;21.23;12.73;;;4.60;99.90;;;;;;2110264;67;20802;-73
2021/12/10 04:27:28;;;;;;;22.98;14.27;;;4.60;99.90;;;;;;2106659;67;20237;-73
2021/12/10 04:30:14;;;;;;;22.40;14.57;;;4.60;99.90;;;;;;2123538;67;20188;-72
2021/12/10 04:32:56;;;;;;;20.52;15.23;;;4.50;99.90;;;;;;2131318;67;20347;-72
2021/12/10 04:35:38;;;;;;;25.55;16.02;;;4.60;99.90;;;;;;2139669;66;20436;-72
2021/12/10 04:38:21;;;;;;;24.90;16.17;;;4.50;99.90;;;;;;2142433;66;20197;-73
2021/12/10 04:41:05;;;;;;;25.85;16.30;;;4.50;99.90;;;;;;2153759;66;20430;-73
2021/12/10 04:43:50;;;;;;;22.65;15.70;;;4.50;99.90;;;;;;2134466;67;20219;-72
2021/12/10 04:46:35;;;;;;;21.67;15.57;;;4.40;99.90;;;;;;2144960;66;20350;-71
2021/12/10 04:49:18;;;;;;;24.88;17.48;;;4.30;99.90;;;;;;2146816;66;20242;-72
2021/12/10 04:52:07;;;;;;;24.92;17.48;;;4.30;99.90;;;;;;2139376;67;20207;-72
2021/12/10 04:54:53;;;;;;;27.90;17.05;;;4.30;99.90;;;;;;2128000;67;20303;-73
2021/12/10 04:57:39;;;;;;;22.13;16.55;;;4.20;99.90;;;;;;2119760;67;20313;-72
2021/12/10 05:00:27;;;;;;;26.77;17.45;;;4.20;99.90;;;;;;2126560;67;20238;-72
2021/12/10 05:03:09;;;;;;;26.13;17.98;;;4.00;99.90;;;;;;2127304;67;20206;-72
2021/12/10 05:05:51;;;;;;;25.02;15.52;;;3.80;99.90;;;;;;2140080;67;20247;-72
2021/12/10 05:08:36;;;;;;;27.25;16.58;;;3.70;99.90;;;;;;2149957;66;20302;-73
2021/12/10 05:11:18;;;;;;;22.20;16.88;;;3.70;99.90;;;;;;2131582;67;20426;-72
2021/12/10 05:14:03;;;;;;;23.95;16.27;;;3.60;99.90;;;;;;2123232;67;20189;-72
2021/12/10 05:16:47;;;;;;;25.90;16.60;;;3.50;99.90;;;;;;2113510;67;20277;-72
2021/12/10 05:19:29;;;;;;;26.13;16.48;;;3.50;99.90;;;;;;2132698;67;20411;-72
2021/12/10 05:22:12;;;;;;;25.52;15.00;;;3.40;99.90;;;;;;2125362;67;20279;-72
2021/12/10 05:24:55;;;;;;;24.35;16.77;;;3.30;99.90;;;;;;2136731;66;20190;-73
2021/12/10 05:27:38;;;;;;;24.30;16.42;;;3.30;99.90;;;;;;2132660;67;20267;-72
2021/12/10 05:30:23;;;;;;;27.10;17.05;;;3.20;99.90;;;;;;2146612;66;20340;-72
2021/12/10 05:33:05;;;;;;;29.90;17.85;;;3.20;99.90;;;;;;2132622;67;20394;-70
2021/12/10 05:35:48;;;;;;;22.60;16.92;;;3.10;99.90;;;;;;2139469;66;20655;-71
2021/12/10 05:38:31;;;;;;;26.02;16.52;;;3.10;99.90;;;;;;2140203;66;20680;-72
2021/12/10 05:41:14;;;;;;;26.98;16.80;;;3.00;99.90;;;;;;2132559;67;20309;-73
2021/12/10 05:43:59;;;;;;;25.42;16.52;;;3.00;99.90;;;;;;2130478;67;20365;-72
2021/12/10 05:46:40;;;;;;;24.10;16.98;;;3.00;99.90;;;;;;2132494;67;20299;-72
2021/12/10 05:49:24;;;;;;;29.98;18.40;;;2.90;99.90;;;;;;2120632;67;20253;-73
2021/12/10 05:52:09;;;;;;;26.45;18.27;;;2.80;99.90;;;;;;2114781;67;20285;-73
2021/12/10 05:54:54;;;;;;;25.38;16.38;;;2.80;99.90;;;;;;2125578;67;20236;-72
2021/12/10 05:57:39;;;;;;;29.38;17.90;;;2.90;99.90;;;;;;2137831;67;20460;-72
2021/12/10 06:00:29;;;;;;;29.25;17.55;;;2.80;99.90;;;;;;2131294;67;20313;-72
2021/12/10 06:03:12;;;;;;;32.53;19.17;;;2.80;99.90;;;;;;2117394;67;20719;-72
2021/12/10 06:05:54;;;;;;;35.17;18.75;;;2.70;99.90;;;;;;2129380;67;20219;-72
2021/12/10 06:08:38;;;;;;;30.67;18.75;;;2.70;99.90;;;;;;2132321;67;20199;-72
2021/12/10 06:11:21;;;;;;;30.57;19.30;;;2.70;99.90;;;;;;2133710;66;20793;-72
2021/12/10 06:14:03;;;;;;;30.52;18.40;;;2.70;99.90;;;;;;2138070;67;20921;-73
2021/12/10 06:16:46;;;;;;;32.17;19.65;;;2.70;99.90;;;;;;2137044;67;20171;-73
2021/12/10 06:19:27;;;;;;;30.15;18.25;;;2.70;99.90;;;;;;2146605;66;20296;-72
2021/12/10 06:22:10;;;;;;;27.40;18.75;;;2.80;99.90;;;;;;2146394;66;20331;-72
2021/12/10 06:24:51;;;;;;;30.48;18.75;;;2.80;99.90;;;;;;2142832;66;20323;-72
2021/12/10 06:27:33;;;;;;;25.02;17.00;;;2.80;99.90;;;;;;2124827;67;20409;-72
2021/12/10 06:30:18;;;;;;;26.38;18.13;;;2.70;99.90;;;;;;2125102;67;20165;-72
2021/12/10 06:33:02;;;;;;;31.20;17.30;;;2.60;99.90;;;;;;1903323;67;15108593;-71
2021/12/10 06:35:49;;;;;;;25.85;17.50;;;2.60;99.90;;;;;;2117695;67;20294;-71
2021/12/10 06:38:30;;;;;;;27.25;17.85;;;2.50;99.90;;;;;;2123339;67;20339;-70
2021/12/10 06:41:14;;;;;;;27.60;18.63;;;2.60;99.90;;;;;;2124821;67;20358;-73
2021/12/10 06:43:56;;;;;;;31.30;18.23;;;2.60;99.90;;;;;;2124983;67;20183;-73
2021/12/10 06:46:37;;;;;;;26.17;17.95;;;2.70;99.90;;;;;;2124944;67;20194;-72
2021/12/10 06:49:20;;;;;;;26.02;17.98;;;2.70;99.90;;;;;;2132088;67;20328;-72
2021/12/10 06:52:06;;;;;;;24.90;17.57;;;2.70;99.90;;;;;;2131003;67;20582;-73
2021/12/10 06:54:47;;;;;;;30.80;18.27;;;2.70;99.90;;;;;;2122706;67;20741;-72
2021/12/10 06:57:30;;;;;;;29.65;17.75;;;2.70;99.90;;;;;;2117848;67;20273;-72
2021/12/10 07:00:25;;;;;;;25.33;16.10;;;2.60;99.90;;;;;;2120527;67;20239;-72
2021/12/10 07:03:08;;;;;;;24.75;15.55;;;2.60;99.90;;;;;;2128234;67;20182;-74
2021/12/10 07:05:54;;;;;;;24.52;14.82;;;2.50;99.90;;;;;;2131874;67;20252;-70
2021/12/10 07:08:40;;;;;;;21.13;14.32;;;2.50;99.90;;;;;;2133673;66;20450;-72
2021/12/10 07:11:22;;;;;;;23.90;14.40;;;2.60;99.90;;;;;;2130473;67;20379;-72
2021/12/10 07:14:04;;;;;;;18.23;13.18;;;2.60;99.90;;;;;;2117510;67;21076;-72
2021/12/10 07:16:49;;;;;;;19.70;13.75;;;2.50;99.90;;;;;;2121014;67;20295;-72
2021/12/10 07:19:33;;;;;;;21.85;13.95;;;2.50;99.90;;;;;;2130211;67;20216;-73
2021/12/10 07:22:16;;;;;;;21.45;13.88;;;2.40;99.90;;;;;;2123043;67;20286;-72
2021/12/10 07:25:00;;;;;;;21.88;15.07;;;2.30;99.90;;;;;;2123072;67;21080;-73
2021/12/10 07:27:43;;;;;;;21.92;14.25;;;2.30;99.90;;;;;;2120757;67;20224;-71
2021/12/10 07:30:29;;;;;;;22.15;14.25;;;2.20;99.90;;;;;;2127083;67;20255;-72
2021/12/10 07:33:14;;;;;;;22.58;14.30;;;2.20;99.90;;;;;;2131328;67;20669;-72
2021/12/10 07:35:56;;;;;;;19.95;14.18;;;2.20;99.90;;;;;;2132897;67;20785;-72
2021/12/10 07:38:38;;;;;;;23.35;14.30;;;2.10;99.90;;;;;;2131976;67;20449;-72
2021/12/10 07:41:20;;;;;;;22.15;13.25;;;2.10;99.90;;;;;;2125736;67;20337;-72
2021/12/10 07:44:02;;;;;;;22.08;13.48;;;2.00;99.90;;;;;;2139729;66;20345;-73
2021/12/10 07:46:45;;;;;;;20.75;13.02;;;2.00;99.90;;;;;;2125341;67;20431;-73
2021/12/10 07:49:32;;;;;;;20.13;12.15;;;1.90;99.90;;;;;;2125277;67;20316;-72
2021/12/10 07:52:18;;;;;;;24.10;13.32;;;1.90;99.90;;;;;;2124059;67;20278;-72
2021/12/10 07:55:01;;;;;;;18.63;11.25;;;1.90;99.90;;;;;;2096570;68;20778;-72
2021/12/10 07:57:43;;;;;;;18.00;12.57;;;1.90;99.90;;;;;;2118046;67;20401;-72
2021/12/10 08:00:28;;;;;;;17.90;12.25;;;1.90;99.90;;;;;;2124762;67;20259;-72
2021/12/10 08:03:09;;;;;;;15.90;10.63;;;1.90;99.90;;;;;;2118063;67;20252;-71
2021/12/10 08:05:52;;;;;;;19.50;10.98;;;1.90;99.90;;;;;;2135029;67;20882;-71
2021/12/10 08:08:33;;;;;;;18.77;11.30;;;1.90;99.90;;;;;;2146986;66;20370;-72
2021/12/10 08:11:21;;;;;;;20.60;11.27;;;1.90;99.90;;;;;;2152974;66;20349;-72
2021/12/10 08:14:06;;;;;;;17.60;10.65;;;1.90;99.90;;;;;;2138760;66;20897;-73
2021/12/10 08:16:49;;;;;;;16.92;10.85;;;1.90;99.90;;;;;;2140342;66;20360;-73
2021/12/10 08:19:34;;;;;;;17.27;11.45;;;1.90;99.90;;;;;;2139827;66;20221;-72
2021/12/10 08:22:16;;;;;;;17.27;10.80;;;1.90;99.90;;;;;;2146296;66;20321;-71
2021/12/10 08:25:01;;;;;;;16.00;11.00;;;1.80;99.90;;;;;;2132734;67;20205;-71
2021/12/10 08:27:43;;;;;;;18.50;10.38;;;1.90;99.90;;;;;;2125803;67;20262;-72
2021/12/10 08:30:26;;;;;;;14.73;10.25;;;1.90;99.90;;;;;;2104328;68;20231;-72
2021/12/10 08:33:13;;;;;;;18.02;11.48;;;1.90;99.90;;;;;;2111021;67;20785;-71
2021/12/10 08:36:04;;;;;;;14.75;9.07;;;1.90;99.90;;;;;;2102271;68;20203;-70
2021/12/10 08:38:51;;;;;;;16.55;10.48;;;2.00;99.90;;;;;;2105089;67;20203;-72
2021/12/10 08:41:36;;;;;;;16.17;10.50;;;1.90;99.90;;;;;;2104529;68;20290;-71
2021/12/10 08:44:18;;;;;;;16.15;9.77;;;2.00;99.90;;;;;;2104394;68;20237;-71
2021/12/10 08:47:01;;;;;;;14.48;9.63;;;2.00;99.90;;;;;;2102373;68;20366;-70
2021/12/10 08:49:44;;;;;;;15.00;9.88;;;2.00;99.90;;;;;;2098461;68;20295;-71
2021/12/10 08:52:28;;;;;;;;;;;2.00;99.90;;;;;;2111705;67;20215;-71
2021/12/10 08:55:11;;;;;;;13.65;8.57;;;2.00;99.90;;;;;;2111998;67;20327;-71
2021/12/10 08:57:53;;;;;;;15.63;9.07;;;2.00;99.90;;;;;;2123599;67;20364;-73
2021/12/10 09:00:36;;;;;;;13.50;9.05;;;2.10;99.90;;;;;;2108099;67;20279;-74
2021/12/10 09:03:17;;;;;;;16.70;9.52;;;2.10;99.90;;;;;;2105555;67;20339;-75
2021/12/10 09:06:00;;;;;;;16.73;9.63;;;2.20;99.90;;;;;;2104924;67;20328;-70
2021/12/10 09:08:43;;;;;;;14.20;9.20;;;2.10;99.90;;;;;;2104276;68;20366;-71
2021/12/10 09:11:27;;;;;;;19.48;8.73;;;2.20;99.90;;;;;;2118292;67;20206;-74
2021/12/10 09:14:10;;;;;;;15.38;8.82;;;2.20;99.90;;;;;;2125142;67;20164;-72
2021/12/10 09:16:57;;;;;;;13.75;9.10;;;2.30;99.90;;;;;;2125482;67;20287;-72
2021/12/10 09:19:41;;;;;;;12.25;8.95;;;2.30;99.90;;;;;;2113349;67;20388;-73
2021/12/10 09:22:27;;;;;;;19.90;8.38;;;2.30;99.90;;;;;;2103938;68;20701;-72
2021/12/10 09:25:10;;;;;;;16.35;8.57;;;2.40;99.90;;;;;;2111665;67;20177;-72
2021/12/10 09:27:52;;;;;;;14.93;7.55;;;2.40;99.90;;;;;;2103614;68;20371;-72
2021/12/10 09:30:42;;;;;;;11.63;7.68;;;2.50;99.90;;;;;;2084917;68;20273;-70
2021/12/10 09:33:27;;;;;;;14.38;8.30;;;2.50;99.90;;;;;;2098586;67;20279;-70
2021/12/10 09:36:10;;;;;;;12.38;7.43;;;2.60;99.90;;;;;;2111134;67;20311;-70
2021/12/10 09:38:52;;;;;;;12.57;7.95;;;2.60;99.90;;;;;;2117346;67;20228;-69
2021/12/10 09:41:34;;;;;;;13.35;7.70;;;2.70;99.90;;;;;;2111680;67;20189;-70
2021/12/10 09:44:18;;;;;;;10.55;7.75;;;2.70;99.90;;;;;;2123848;67;20269;-70
2021/12/10 09:47:04;;;;;;;10.57;7.72;;;2.80;99.90;;;;;;2120291;67;20856;-71
2021/12/10 09:49:48;;;;;;;13.20;7.88;;;2.80;99.90;;;;;;2132654;67;20205;-70
2021/12/10 09:52:30;;;;;;;11.35;7.80;;;2.80;99.90;;;;;;2139857;66;20179;-70
2021/12/10 09:55:14;;;;;;;9.77;7.30;;;2.90;99.90;;;;;;2146269;66;20270;-71
2021/12/10 09:57:59;;;;;;;11.63;7.38;;;2.90;99.90;;;;;;2143921;66;20718;-68
2021/12/10 10:00:55;;;;;;;11.65;7.07;;;3.00;99.90;;;;;;2141966;66;20336;-71
2021/12/10 10:03:45;;;;;;;11.73;7.45;;;3.00;99.90;;;;;;2133383;67;20195;-70
2021/12/10 10:06:30;;;;;;;9.40;7.47;;;3.10;99.90;;;;;;2138079;67;20277;-71
2021/12/10 10:09:17;;;;;;;9.75;6.50;;;3.10;99.90;;;;;;2123507;67;20269;-71
2021/12/10 10:12:05;;;;;;;12.35;7.25;;;3.20;99.90;;;;;;2125837;67;20420;-72
2021/12/10 10:14:47;;;;;;;10.90;7.25;;;3.30;99.90;;;;;;2114545;67;20225;-71
2021/12/10 10:17:29;;;;;;;11.30;7.32;;;3.30;99.90;;;;;;2132123;67;20243;-72
2021/12/10 10:20:14;;;;;;;10.02;6.80;;;3.40;99.90;;;;;;2136657;67;20325;-72
2021/12/10 10:22:57;;;;;;;13.20;7.72;;;3.50;99.90;;;;;;2129991;66;20314;-73
2021/12/10 10:25:46;;;;;;;9.63;7.60;;;3.50;99.90;;;;;;2134023;67;20241;-72
2021/12/10 10:28:28;;;;;;;9.38;6.75;;;3.60;99.90;;;;;;2150381;66;20306;-73
2021/12/10 10:31:18;;;;;;;11.70;7.00;;;3.70;99.90;;;;;;2159311;66;20213;-72
2021/12/10 10:34:00;;;;;;;10.95;6.45;;;3.80;99.90;;;;;;2153716;66;20273;-72
2021/12/10 10:36:42;;;;;;;7.30;6.22;;;3.80;99.90;;;;;;2146107;66;20162;-71
2021/12/10 10:39:34;;;;;;;11.40;6.77;;;3.80;99.90;;;;;;2145961;66;20844;-72
2021/12/10 10:42:21;;;;;;;9.63;5.85;;;3.90;99.90;;;;;;2140219;66;20674;-71
2021/12/10 10:45:27;;;;;;;9.02;6.22;;;4.00;99.90;;;;;;2132349;67;20346;-71
2021/12/10 10:48:16;;;;;;;8.35;5.40;;;4.00;99.90;;;;;;2126637;67;20283;-72
2021/12/10 10:51:11;;;;;;;9.05;5.95;;;4.10;99.90;;;;;;2131430;67;20323;-70
2021/12/10 10:53:57;;;;;;;10.40;6.43;;;4.20;99.90;;;;;;2124290;67;20239;-71
2021/12/10 10:56:45;;;;;;;7.63;5.68;;;4.30;99.90;;;;;;2127821;67;20405;-72
2021/12/10 10:59:27;;;;;;;6.57;5.18;;;4.30;99.90;;;;;;2117691;67;20202;-70
2021/12/10 11:02:11;;;;;;;8.10;4.85;;;4.40;99.90;;;;;;2133241;66;20235;-71
2021/12/10 11:04:53;;;;;;;11.52;6.40;;;4.60;99.90;;;;;;2146274;66;20251;-73
2021/12/10 11:07:44;;;;;;;8.38;5.53;;;4.80;99.90;;;;;;2137689;66;20304;-70
2021/12/10 11:10:30;;;;;;;6.15;4.82;;;5.10;99.90;;;;;;2137673;67;20742;-70
2021/12/10 11:13:21;;;;;;;6.85;4.38;;;5.50;99.90;;;;;;2137091;67;20171;-71
2021/12/10 11:16:05;;;;;;;7.22;5.55;;;5.90;99.90;;;;;;2122164;67;20380;-71
2021/12/10 11:19:03;;;;;;;6.50;5.20;;;6.30;99.90;;;;;;2128291;67;20849;-73
2021/12/10 11:21:50;;;;;;;9.90;5.30;;;6.60;99.90;;;;;;2135606;67;20241;-72
2021/12/10 11:24:45;;;;;;;5.55;4.65;;;6.90;99.90;;;;;;2140148;67;20183;-73
2021/12/10 11:27:41;;;;;;;5.68;4.38;;;7.10;99.90;;;;;;2138291;66;20228;-72
2021/12/10 11:30:25;;;;;;;6.60;4.43;;;7.20;99.90;;;;;;2145964;66;20221;-72
2021/12/10 11:33:19;;;;;;;6.25;4.93;;;7.30;99.90;;;;;;2139986;66;20322;-72
2021/12/10 11:36:09;;;;;;;7.88;4.60;;;7.30;99.90;;;;;;2125519;67;20261;-72
2021/12/10 11:38:57;;;;;;;8.23;5.38;;;7.20;99.90;;;;;;2113377;67;20358;-74
2021/12/10 11:41:43;;;;;;;7.72;4.55;;;7.20;99.90;;;;;;2120779;67;20206;-72
2021/12/10 11:44:54;;;;;;;5.72;4.57;;;7.10;99.90;;;;;;2106844;67;20463;-73
2021/12/10 11:47:48;;;;;;;6.78;4.28;;;7.10;99.90;;;;;;2109231;67;20181;-71
2021/12/10 11:50:37;;;;;;;6.82;4.78;;;7.10;99.90;;;;;;2126323;67;20298;-71
2021/12/10 11:53:21;;;;;;;7.18;4.68;;;7.00;99.90;;;;;;2118757;67;20169;-72
2021/12/10 11:56:14;;;;;;;5.57;4.05;;;6.90;99.90;;;;;;2113853;67;20261;-71
2021/12/10 11:59:22;;;;;;;7.75;4.03;;;6.90;99.90;;;;;;2107226;67;20334;-72
2021/12/10 12:02:17;;;;;;;6.15;4.57;;;6.80;99.90;;;;;;2123907;67;20753;-71
2021/12/10 12:05:09;;;;;;;6.55;4.18;;;6.70;99.90;;;;;;2134603;66;20175;-72
2021/12/10 12:07:54;;;;;;;6.53;4.95;;;6.70;99.90;;;;;;2134021;67;20647;-73
2021/12/10 12:11:02;;;;;;;9.13;4.13;;;6.60;99.90;;;;;;2125811;67;20873;-73
2021/12/10 12:13:54;;;;;;;6.93;4.07;;;6.60;99.90;;;;;;2122616;67;20247;-73
2021/12/10 12:16:36;;;;;;;6.30;3.25;;;6.60;99.90;;;;;;2118157;67;20897;-69
2021/12/10 12:19:18;;;;;;;4.75;3.83;;;6.70;99.90;;;;;;2104634;67;20298;-73
2021/12/10 12:25:09;;;;;;;4.80;3.65;;;6.90;99.90;;;;;;2108468;67;20794;-73
2021/12/10 12:28:10;;;;;;;6.05;4.18;;;7.00;99.90;;;;;;2121020;67;20327;-72
2021/12/10 12:30:56;;;;;;;5.57;3.70;;;7.20;99.90;;;;;;2126543;67;20345;-71
2021/12/10 12:33:50;;;;;;;5.78;3.60;;;7.70;99.90;;;;;;2135078;67;20694;-74
2021/12/10 12:37:00;;;;;;;5.15;4.35;;;8.10;99.90;;;;;;2132776;67;20372;-73
2021/12/10 12:39:54;;;;;;;8.77;5.60;;;8.50;99.90;;;;;;2140371;66;20345;-73
2021/12/10 12:42:41;;;;;;;4.28;3.53;;;9.00;99.90;;;;;;2147039;66;20226;-74
2021/12/10 12:45:26;;;;;;;5.53;3.53;;;9.40;99.90;;;;;;2155429;66;20379;-68
2021/12/10 12:48:14;;;;;;;4.38;3.03;;;9.80;99.90;;;;;;2146869;66;20581;-71
2021/12/10 12:51:01;;;;;;;;;;;10.30;99.90;;;;;;2147663;66;20403;-71
2021/12/10 12:53:43;;;;;;;4.53;3.25;;;10.60;99.90;;;;;;2145157;66;20067;-72
2021/12/10 12:56:29;;;;;;;6.90;3.63;;;10.70;99.90;;;;;;2147436;66;20359;-72
2021/12/10 12:59:12;;;;;;;6.65;4.07;;;10.70;99.90;;;;;;2149421;66;20890;-69
2021/12/10 13:01:59;;;;;;;5.93;4.60;;;10.40;99.90;;;;;;2152225;66;20309;-70
2021/12/10 13:04:44;;;;;;;8.23;4.35;;;10.20;99.90;;;;;;2132737;67;20180;-71
2021/12/10 13:07:29;;;;;;;6.28;4.47;;;10.10;99.90;;;;;;2114039;67;20173;-70
2021/12/10 13:10:17;;;;;;;7.57;4.53;;;10.00;99.90;;;;;;2116066;67;20453;-69
2021/12/10 13:13:11;;;;;;;7.13;4.60;;;9.80;99.90;;;;;;2119940;67;20291;-71
2021/12/10 13:15:53;;;;;;;7.82;4.70;;;9.50;99.90;;;;;;2122668;67;20179;-71
2021/12/10 13:18:37;;;;;;;5.88;4.55;;;9.30;99.90;;;;;;2125317;67;20444;-70
2021/12/10 13:21:21;;;;;;;7.47;4.63;;;9.10;99.90;;;;;;2134100;67;20179;-70
2021/12/10 13:24:05;;;;;;;7.30;4.70;;;8.20;99.90;;;;;;2123055;67;20314;-69
2021/12/10 13:26:47;;;;;;;5.75;3.95;;;8.80;99.90;;;;;;2118974;67;20247;-70
2021/12/10 13:29:31;;;;;;;6.22;4.47;;;8.70;99.90;;;;;;2109698;67;20414;-71
2021/12/10 13:32:15;;;;;;;7.05;4.50;;;8.70;99.90;;;;;;2105560;67;20318;-71
2021/12/10 13:35:00;;;;;;;7.38;4.80;;;8.60;99.90;;;;;;2119615;67;20317;-70
2021/12/10 13:37:43;;;;;;;9.35;5.13;;;8.40;99.90;;;;;;2138790;67;20218;-72
2021/12/10 13:40:27;;;;;;;8.43;5.00;;;8.20;99.90;;;;;;2138155;67;20338;-71
2021/12/10 13:43:14;;;;;;;7.10;4.90;;;8.00;99.90;;;;;;2131850;67;20194;-72
2021/12/10 13:46:10;;;;;;;6.18;4.20;;;7.70;99.90;;;;;;2134521;66;20281;-71
2021/12/10 13:48:53;;;;;;;;;;;7.50;99.90;;;;;;2127141;67;20263;-70
2021/12/10 13:51:41;;;;;;;6.80;4.60;;;7.20;99.90;;;;;;2135014;66;20054;-70
2021/12/10 13:54:25;;;;;;;7.18;4.90;;;7.00;99.90;;;;;;2139618;66;20237;-71
2021/12/10 13:57:11;;;;;;;6.50;4.63;;;6.80;99.90;;;;;;2160776;66;20194;-71
2021/12/10 13:59:59;;;;;;;8.82;5.35;;;6.60;99.90;;;;;;2133999;67;20171;-71
2021/12/10 14:02:49;;;;;;;6.75;5.10;;;6.40;99.90;;;;;;2146718;66;20311;-71
2021/12/10 14:05:36;;;;;;;6.07;5.30;;;6.20;99.90;;;;;;2139741;66;20171;-70
2021/12/10 14:08:18;;;;;;;8.50;5.60;;;6.10;99.90;;;;;;2141656;66;20322;-72
2021/12/10 14:11:12;;;;;;;8.13;5.22;;;6.40;99.90;;;;;;2136506;66;20182;-73
2021/12/10 14:14:09;;;;;;;9.52;5.75;;;5.80;99.90;;;;;;2129796;67;20317;-73
2021/12/10 14:16:59;;;;;;;10.07;6.10;;;5.70;99.90;;;;;;2133381;67;20800;-72
2021/12/10 14:19:49;;;;;;;7.75;5.85;;;5.60;99.90;;;;;;2136033;67;20626;-70
2021/12/10 14:22:48;;;;;;;9.23;6.40;;;6.20;99.90;;;;;;2132201;67;20408;-70
2021/12/10 14:25:52;;;;;;;12.05;7.03;;;5.30;99.90;;;;;;2120060;67;20306;-71
2021/12/10 14:28:41;;;;;;;13.18;6.60;;;5.20;99.90;;;;;;2125425;67;20168;-74
2021/12/10 14:31:33;;;;;;;10.38;6.70;;;5.10;99.90;;;;;;2141801;66;20253;-69
2021/12/10 14:34:38;;;;;;;10.68;6.45;;;5.00;99.90;;;;;;2144542;66;20783;-69